Terminal Aerodrome Forecast
Issued by NWS Flagstaff, AZ

Home | Current Version | Previous Version | Text Only | Print | Product List | Glossary On
Versions: 1 2 3 4 5 6 7 8 9 10 11 12 13 14 15
000
FTUS45 KFGZ 041720
TAFFLG
TAF
KFLG 041720Z 0418/0518 22012G18KT P6SM SCT040 BKN100
      TEMPO 0420/0424 VRB15G25KT -TSRA BKN030CB BKN060
     FM050230 22006KT P6SM SCT040 SCT100=

USA.gov is the U.S. government's official web portal to all federal, state and local government web resources and services.